sensor_id;sensor_type;location;lat;lon;timestamp;P1;durP1;ratioP1;P2;durP2;ratioP2
62523;SDS011;53689;56.878;60.672;2023-07-28T00:02:22;13.30;;;8.15;;
62523;SDS011;53689;56.878;60.672;2023-07-28T00:04:50;9.60;;;7.28;;
62523;SDS011;53689;56.878;60.672;2023-07-28T00:07:18;9.40;;;6.95;;
62523;SDS011;53689;56.878;60.672;2023-07-28T00:09:45;12.88;;;8.52;;
62523;SDS011;53689;56.878;60.672;2023-07-28T00:12:13;11.60;;;7.45;;
62523;SDS011;53689;56.878;60.672;2023-07-28T00:14:42;10.93;;;8.40;;
62523;SDS011;53689;56.878;60.672;2023-07-28T00:17:10;12.90;;;9.48;;
62523;SDS011;53689;56.878;60.672;2023-07-28T00:19:38;10.27;;;8.13;;
62523;SDS011;53689;56.878;60.672;2023-07-28T00:22:05;13.57;;;8.73;;
62523;SDS011;53689;56.878;60.672;2023-07-28T00:24:33;9.60;;;7.47;;
62523;SDS011;53689;56.878;60.672;2023-07-28T00:27:01;10.88;;;7.75;;
62523;SDS011;53689;56.878;60.672;2023-07-28T00:29:28;10.63;;;8.27;;
62523;SDS011;53689;56.878;60.672;2023-07-28T00:31:58;11.48;;;7.85;;
62523;SDS011;53689;56.878;60.672;2023-07-28T00:34:25;10.05;;;7.97;;
62523;SDS011;53689;56.878;60.672;2023-07-28T00:36:53;9.82;;;8.43;;
62523;SDS011;53689;56.878;60.672;2023-07-28T00:39:20;11.55;;;8.07;;
62523;SDS011;53689;56.878;60.672;2023-07-28T00:41:48;12.00;;;8.38;;
62523;SDS011;53689;56.878;60.672;2023-07-28T00:44:16;11.55;;;8.02;;
62523;SDS011;53689;56.878;60.672;2023-07-28T00:46:43;12.15;;;8.20;;
62523;SDS011;53689;56.878;60.672;2023-07-28T00:49:14;11.75;;;8.32;;
62523;SDS011;53689;56.878;60.672;2023-07-28T00:54:09;11.18;;;8.75;;
62523;SDS011;53689;56.878;60.672;2023-07-28T00:56:38;9.18;;;7.30;;
62523;SDS011;53689;56.878;60.672;2023-07-28T00:59:06;8.95;;;7.32;;
62523;SDS011;53689;56.878;60.672;2023-07-28T01:01:34;11.70;;;7.80;;
62523;SDS011;53689;56.878;60.672;2023-07-28T01:04:02;8.65;;;6.93;;
62523;SDS011;53689;56.878;60.672;2023-07-28T01:06:40;12.02;;;8.00;;
62523;SDS011;53689;56.878;60.672;2023-07-28T01:09:18;14.02;;;8.45;;
62523;SDS011;53689;56.878;60.672;2023-07-28T01:11:54;10.15;;;7.97;;
62523;SDS011;53689;56.878;60.672;2023-07-28T01:14:23;9.73;;;7.35;;
62523;SDS011;53689;56.878;60.672;2023-07-28T01:16:50;11.70;;;8.50;;
62523;SDS011;53689;56.878;60.672;2023-07-28T01:19:19;13.07;;;8.35;;
62523;SDS011;53689;56.878;60.672;2023-07-28T01:21:52;10.38;;;8.30;;
62523;SDS011;53689;56.878;60.672;2023-07-28T01:24:27;11.05;;;7.70;;
62523;SDS011;53689;56.878;60.672;2023-07-28T01:27:02;11.55;;;8.75;;
62523;SDS011;53689;56.878;60.672;2023-07-28T01:29:30;11.45;;;8.07;;
62523;SDS011;53689;56.878;60.672;2023-07-28T01:31:59;11.65;;;8.57;;
62523;SDS011;53689;56.878;60.672;2023-07-28T01:34:26;10.77;;;8.65;;
62523;SDS011;53689;56.878;60.672;2023-07-28T01:36:54;14.18;;;8.82;;
62523;SDS011;53689;56.878;60.672;2023-07-28T01:39:23;11.38;;;8.45;;
62523;SDS011;53689;56.878;60.672;2023-07-28T01:41:51;9.90;;;7.30;;
62523;SDS011;53689;56.878;60.672;2023-07-28T01:44:20;12.60;;;8.02;;
62523;SDS011;53689;56.878;60.672;2023-07-28T01:46:47;12.90;;;8.32;;
62523;SDS011;53689;56.878;60.672;2023-07-28T01:49:15;11.15;;;7.65;;
62523;SDS011;53689;56.878;60.672;2023-07-28T01:51:43;10.45;;;8.73;;
62523;SDS011;53689;56.878;60.672;2023-07-28T01:54:10;13.35;;;7.82;;
62523;SDS011;53689;56.878;60.672;2023-07-28T01:56:38;11.77;;;7.97;;
62523;SDS011;53689;56.878;60.672;2023-07-28T01:59:05;12.02;;;7.95;;
62523;SDS011;53689;56.878;60.672;2023-07-28T02:01:34;9.77;;;7.75;;
62523;SDS011;53689;56.878;60.672;2023-07-28T02:04:02;10.93;;;8.00;;
62523;SDS011;53689;56.878;60.672;2023-07-28T02:06:31;13.60;;;7.95;;
62523;SDS011;53689;56.878;60.672;2023-07-28T02:08:59;12.43;;;8.50;;
62523;SDS011;53689;56.878;60.672;2023-07-28T02:11:27;13.23;;;8.27;;
62523;SDS011;53689;56.878;60.672;2023-07-28T02:13:55;13.45;;;8.90;;
62523;SDS011;53689;56.878;60.672;2023-07-28T02:16:22;13.10;;;8.20;;
62523;SDS011;53689;56.878;60.672;2023-07-28T02:18:51;11.82;;;8.25;;
62523;SDS011;53689;56.878;60.672;2023-07-28T02:21:19;10.43;;;8.40;;
62523;SDS011;53689;56.878;60.672;2023-07-28T02:23:48;12.60;;;8.05;;
62523;SDS011;53689;56.878;60.672;2023-07-28T02:26:15;10.05;;;8.20;;
62523;SDS011;53689;56.878;60.672;2023-07-28T02:28:44;15.33;;;9.57;;
62523;SDS011;53689;56.878;60.672;2023-07-28T02:31:13;14.35;;;8.93;;
62523;SDS011;53689;56.878;60.672;2023-07-28T02:33:41;11.18;;;8.13;;
62523;SDS011;53689;56.878;60.672;2023-07-28T02:36:10;11.63;;;8.07;;
62523;SDS011;53689;56.878;60.672;2023-07-28T02:38:37;14.93;;;10.77;;
62523;SDS011;53689;56.878;60.672;2023-07-28T02:41:05;10.15;;;7.57;;
62523;SDS011;53689;56.878;60.672;2023-07-28T02:43:33;11.35;;;7.60;;
62523;SDS011;53689;56.878;60.672;2023-07-28T02:46:00;13.18;;;7.85;;
62523;SDS011;53689;56.878;60.672;2023-07-28T02:48:28;14.15;;;8.38;;
62523;SDS011;53689;56.878;60.672;2023-07-28T02:50:56;10.57;;;8.02;;
62523;SDS011;53689;56.878;60.672;2023-07-28T02:53:25;8.93;;;6.90;;
62523;SDS011;53689;56.878;60.672;2023-07-28T02:55:52;11.25;;;8.07;;
62523;SDS011;53689;56.878;60.672;2023-07-28T02:58:20;12.73;;;8.00;;
62523;SDS011;53689;56.878;60.672;2023-07-28T03:00:47;10.77;;;7.93;;
62523;SDS011;53689;56.878;60.672;2023-07-28T03:03:20;13.55;;;8.73;;
62523;SDS011;53689;56.878;60.672;2023-07-28T03:05:51;11.93;;;8.63;;
62523;SDS011;53689;56.878;60.672;2023-07-28T03:08:25;9.25;;;7.30;;
62523;SDS011;53689;56.878;60.672;2023-07-28T03:11:06;9.73;;;7.20;;
62523;SDS011;53689;56.878;60.672;2023-07-28T03:13:33;9.95;;;7.65;;
62523;SDS011;53689;56.878;60.672;2023-07-28T03:16:01;17.83;;;8.70;;
62523;SDS011;53689;56.878;60.672;2023-07-28T03:18:29;11.75;;;8.07;;
62523;SDS011;53689;56.878;60.672;2023-07-28T03:20:57;15.82;;;11.50;;
62523;SDS011;53689;56.878;60.672;2023-07-28T03:23:26;17.60;;;10.77;;
62523;SDS011;53689;56.878;60.672;2023-07-28T03:25:54;10.43;;;8.00;;
62523;SDS011;53689;56.878;60.672;2023-07-28T03:28:21;13.98;;;9.68;;
62523;SDS011;53689;56.878;60.672;2023-07-28T03:30:49;13.68;;;10.05;;
62523;SDS011;53689;56.878;60.672;2023-07-28T03:33:17;13.30;;;9.57;;
62523;SDS011;53689;56.878;60.672;2023-07-28T03:35:44;16.35;;;9.57;;
62523;SDS011;53689;56.878;60.672;2023-07-28T03:38:12;11.40;;;9.25;;
62523;SDS011;53689;56.878;60.672;2023-07-28T03:40:41;11.77;;;9.23;;
62523;SDS011;53689;56.878;60.672;2023-07-28T03:43:09;11.85;;;8.52;;
62523;SDS011;53689;56.878;60.672;2023-07-28T03:45:37;15.68;;;9.77;;
62523;SDS011;53689;56.878;60.672;2023-07-28T03:48:04;12.45;;;8.63;;
62523;SDS011;53689;56.878;60.672;2023-07-28T03:50:32;12.82;;;9.15;;
62523;SDS011;53689;56.878;60.672;2023-07-28T03:53:00;11.77;;;8.82;;
62523;SDS011;53689;56.878;60.672;2023-07-28T03:55:27;16.35;;;11.85;;
62523;SDS011;53689;56.878;60.672;2023-07-28T03:57:56;12.50;;;8.60;;
62523;SDS011;53689;56.878;60.672;2023-07-28T04:00:24;11.88;;;8.27;;
62523;SDS011;53689;56.878;60.672;2023-07-28T04:02:52;14.73;;;8.63;;
62523;SDS011;53689;56.878;60.672;2023-07-28T04:05:19;13.82;;;8.68;;
62523;SDS011;53689;56.878;60.672;2023-07-28T04:07:48;11.38;;;8.75;;
62523;SDS011;53689;56.878;60.672;2023-07-28T04:10:16;13.90;;;9.60;;
62523;SDS011;53689;56.878;60.672;2023-07-28T04:12:44;12.20;;;7.80;;
62523;SDS011;53689;56.878;60.672;2023-07-28T04:15:13;15.93;;;8.73;;
62523;SDS011;53689;56.878;60.672;2023-07-28T04:17:41;11.75;;;8.77;;
62523;SDS011;53689;56.878;60.672;2023-07-28T04:20:09;11.43;;;8.60;;
62523;SDS011;53689;56.878;60.672;2023-07-28T04:22:37;10.38;;;7.63;;
62523;SDS011;53689;56.878;60.672;2023-07-28T04:25:05;13.18;;;9.38;;
62523;SDS011;53689;56.878;60.672;2023-07-28T04:27:36;15.63;;;8.07;;
62523;SDS011;53689;56.878;60.672;2023-07-28T04:30:05;13.30;;;8.25;;
62523;SDS011;53689;56.878;60.672;2023-07-28T04:32:34;13.60;;;7.57;;
62523;SDS011;53689;56.878;60.672;2023-07-28T04:35:10;10.95;;;8.30;;
62523;SDS011;53689;56.878;60.672;2023-07-28T04:38:06;10.93;;;7.25;;
62523;SDS011;53689;56.878;60.672;2023-07-28T04:41:06;14.52;;;8.40;;
62523;SDS011;53689;56.878;60.672;2023-07-28T04:43:51;16.95;;;7.18;;
62523;SDS011;53689;56.878;60.672;2023-07-28T04:46:21;15.43;;;10.10;;
62523;SDS011;53689;56.878;60.672;2023-07-28T04:48:55;14.23;;;9.10;;
62523;SDS011;53689;56.878;60.672;2023-07-28T04:51:50;22.48;;;10.50;;
62523;SDS011;53689;56.878;60.672;2023-07-28T04:54:38;20.85;;;9.88;;
62523;SDS011;53689;56.878;60.672;2023-07-28T04:57:06;15.52;;;8.93;;
62523;SDS011;53689;56.878;60.672;2023-07-28T04:59:36;18.75;;;8.65;;
62523;SDS011;53689;56.878;60.672;2023-07-28T05:02:04;22.20;;;10.73;;
62523;SDS011;53689;56.878;60.672;2023-07-28T05:04:34;16.65;;;8.63;;
62523;SDS011;53689;56.878;60.672;2023-07-28T05:07:02;17.65;;;8.88;;
62523;SDS011;53689;56.878;60.672;2023-07-28T05:09:30;16.58;;;8.27;;
62523;SDS011;53689;56.878;60.672;2023-07-28T05:11:58;16.35;;;10.23;;
62523;SDS011;53689;56.878;60.672;2023-07-28T05:14:26;13.85;;;9.02;;
62523;SDS011;53689;56.878;60.672;2023-07-28T05:16:53;12.55;;;8.60;;
62523;SDS011;53689;56.878;60.672;2023-07-28T05:19:41;13.32;;;8.25;;
62523;SDS011;53689;56.878;60.672;2023-07-28T05:22:27;13.73;;;8.48;;
62523;SDS011;53689;56.878;60.672;2023-07-28T05:24:56;13.65;;;8.40;;
62523;SDS011;53689;56.878;60.672;2023-07-28T05:27:27;17.63;;;8.68;;
62523;SDS011;53689;56.878;60.672;2023-07-28T05:29:55;13.15;;;7.40;;
62523;SDS011;53689;56.878;60.672;2023-07-28T05:32:22;15.93;;;8.73;;
62523;SDS011;53689;56.878;60.672;2023-07-28T05:35:11;13.43;;;7.90;;
62523;SDS011;53689;56.878;60.672;2023-07-28T05:37:38;10.73;;;8.45;;
62523;SDS011;53689;56.878;60.672;2023-07-28T05:40:06;13.80;;;8.55;;
62523;SDS011;53689;56.878;60.672;2023-07-28T05:42:35;13.65;;;9.35;;
62523;SDS011;53689;56.878;60.672;2023-07-28T05:45:04;15.77;;;8.95;;
62523;SDS011;53689;56.878;60.672;2023-07-28T05:47:32;12.30;;;8.60;;
62523;SDS011;53689;56.878;60.672;2023-07-28T05:50:00;10.82;;;7.65;;
62523;SDS011;53689;56.878;60.672;2023-07-28T05:52:32;18.52;;;8.40;;
62523;SDS011;53689;56.878;60.672;2023-07-28T05:55:00;16.38;;;8.85;;
62523;SDS011;53689;56.878;60.672;2023-07-28T05:57:27;13.18;;;8.23;;
62523;SDS011;53689;56.878;60.672;2023-07-28T05:59:56;14.65;;;7.75;;
62523;SDS011;53689;56.878;60.672;2023-07-28T06:02:24;13.30;;;8.30;;
62523;SDS011;53689;56.878;60.672;2023-07-28T06:04:55;13.38;;;8.38;;
62523;SDS011;53689;56.878;60.672;2023-07-28T06:07:23;13.15;;;7.93;;
62523;SDS011;53689;56.878;60.672;2023-07-28T06:09:52;14.57;;;8.02;;
62523;SDS011;53689;56.878;60.672;2023-07-28T06:12:20;10.88;;;7.78;;
62523;SDS011;53689;56.878;60.672;2023-07-28T06:14:47;10.77;;;8.32;;
62523;SDS011;53689;56.878;60.672;2023-07-28T06:17:15;12.88;;;7.40;;
62523;SDS011;53689;56.878;60.672;2023-07-28T06:19:43;12.07;;;7.63;;
62523;SDS011;53689;56.878;60.672;2023-07-28T06:22:11;9.90;;;8.00;;
62523;SDS011;53689;56.878;60.672;2023-07-28T06:24:42;18.73;;;8.25;;
62523;SDS011;53689;56.878;60.672;2023-07-28T06:27:11;13.98;;;8.85;;
62523;SDS011;53689;56.878;60.672;2023-07-28T06:29:39;14.52;;;8.77;;
62523;SDS011;53689;56.878;60.672;2023-07-28T06:32:07;16.83;;;8.43;;
62523;SDS011;53689;56.878;60.672;2023-07-28T06:34:35;13.80;;;7.47;;
62523;SDS011;53689;56.878;60.672;2023-07-28T06:37:03;12.98;;;7.60;;
62523;SDS011;53689;56.878;60.672;2023-07-28T06:39:31;14.13;;;8.90;;
62523;SDS011;53689;56.878;60.672;2023-07-28T06:41:59;12.95;;;7.90;;
62523;SDS011;53689;56.878;60.672;2023-07-28T06:44:29;15.18;;;8.75;;
62523;SDS011;53689;56.878;60.672;2023-07-28T06:46:57;15.85;;;8.38;;
62523;SDS011;53689;56.878;60.672;2023-07-28T06:49:25;14.75;;;7.00;;
62523;SDS011;53689;56.878;60.672;2023-07-28T06:51:53;13.15;;;7.57;;
62523;SDS011;53689;56.878;60.672;2023-07-28T06:54:20;14.02;;;8.70;;
62523;SDS011;53689;56.878;60.672;2023-07-28T06:56:48;12.02;;;7.65;;
62523;SDS011;53689;56.878;60.672;2023-07-28T06:59:16;11.60;;;8.30;;
62523;SDS011;53689;56.878;60.672;2023-07-28T07:01:49;13.68;;;8.45;;
62523;SDS011;53689;56.878;60.672;2023-07-28T07:04:17;13.25;;;8.05;;
62523;SDS011;53689;56.878;60.672;2023-07-28T07:06:46;12.83;;;8.70;;
62523;SDS011;53689;56.878;60.672;2023-07-28T07:09:14;9.90;;;7.20;;
62523;SDS011;53689;56.878;60.672;2023-07-28T07:11:41;12.88;;;7.45;;
62523;SDS011;53689;56.878;60.672;2023-07-28T07:14:09;16.75;;;7.97;;
62523;SDS011;53689;56.878;60.672;2023-07-28T07:16:37;13.43;;;6.63;;
62523;SDS011;53689;56.878;60.672;2023-07-28T07:19:07;14.32;;;7.20;;
62523;SDS011;53689;56.878;60.672;2023-07-28T07:21:34;10.52;;;7.15;;
62523;SDS011;53689;56.878;60.672;2023-07-28T07:24:03;13.43;;;6.88;;
62523;SDS011;53689;56.878;60.672;2023-07-28T07:26:31;19.85;;;8.55;;
62523;SDS011;53689;56.878;60.672;2023-07-28T07:28:58;20.02;;;8.38;;
62523;SDS011;53689;56.878;60.672;2023-07-28T07:31:26;16.77;;;7.57;;
62523;SDS011;53689;56.878;60.672;2023-07-28T07:33:54;13.02;;;6.53;;
62523;SDS011;53689;56.878;60.672;2023-07-28T07:36:23;13.50;;;6.93;;
62523;SDS011;53689;56.878;60.672;2023-07-28T07:38:50;15.18;;;7.55;;
62523;SDS011;53689;56.878;60.672;2023-07-28T07:41:20;14.20;;;8.93;;
62523;SDS011;53689;56.878;60.672;2023-07-28T07:43:49;11.88;;;7.75;;
62523;SDS011;53689;56.878;60.672;2023-07-28T07:46:19;11.57;;;6.85;;
62523;SDS011;53689;56.878;60.672;2023-07-28T07:48:46;11.35;;;6.70;;
62523;SDS011;53689;56.878;60.672;2023-07-28T07:51:14;10.75;;;6.28;;
62523;SDS011;53689;56.878;60.672;2023-07-28T07:53:44;13.88;;;6.63;;
62523;SDS011;53689;56.878;60.672;2023-07-28T07:56:11;14.40;;;6.22;;
62523;SDS011;53689;56.878;60.672;2023-07-28T07:58:39;10.73;;;6.70;;
62523;SDS011;53689;56.878;60.672;2023-07-28T08:01:07;10.77;;;5.78;;
62523;SDS011;53689;56.878;60.672;2023-07-28T08:03:35;11.00;;;5.68;;
62523;SDS011;53689;56.878;60.672;2023-07-28T08:06:03;9.57;;;5.68;;
62523;SDS011;53689;56.878;60.672;2023-07-28T08:08:30;12.68;;;6.53;;
62523;SDS011;53689;56.878;60.672;2023-07-28T08:11:00;13.45;;;6.00;;
62523;SDS011;53689;56.878;60.672;2023-07-28T08:13:27;11.80;;;6.20;;
62523;SDS011;53689;56.878;60.672;2023-07-28T08:15:55;12.38;;;6.32;;
62523;SDS011;53689;56.878;60.672;2023-07-28T08:18:23;9.68;;;6.65;;
62523;SDS011;53689;56.878;60.672;2023-07-28T08:20:52;12.45;;;7.85;;
62523;SDS011;53689;56.878;60.672;2023-07-28T08:23:20;17.35;;;7.15;;
62523;SDS011;53689;56.878;60.672;2023-07-28T08:25:49;12.18;;;6.07;;
62523;SDS011;53689;56.878;60.672;2023-07-28T08:28:25;9.73;;;5.63;;
62523;SDS011;53689;56.878;60.672;2023-07-28T08:30:54;12.40;;;6.15;;
62523;SDS011;53689;56.878;60.672;2023-07-28T08:33:23;11.55;;;5.95;;
62523;SDS011;53689;56.878;60.672;2023-07-28T08:35:51;9.20;;;5.68;;
62523;SDS011;53689;56.878;60.672;2023-07-28T08:38:19;9.88;;;6.10;;
62523;SDS011;53689;56.878;60.672;2023-07-28T08:40:47;13.05;;;6.60;;
62523;SDS011;53689;56.878;60.672;2023-07-28T08:43:14;10.60;;;5.80;;
62523;SDS011;53689;56.878;60.672;2023-07-28T08:45:43;9.32;;;5.80;;
62523;SDS011;53689;56.878;60.672;2023-07-28T08:48:11;10.15;;;6.03;;
62523;SDS011;53689;56.878;60.672;2023-07-28T08:50:39;10.57;;;5.80;;
62523;SDS011;53689;56.878;60.672;2023-07-28T08:53:07;12.77;;;9.30;;
62523;SDS011;53689;56.878;60.672;2023-07-28T08:55:35;10.85;;;7.90;;
62523;SDS011;53689;56.878;60.672;2023-07-28T08:58:15;10.82;;;6.07;;
62523;SDS011;53689;56.878;60.672;2023-07-28T09:00:45;15.85;;;6.55;;
62523;SDS011;53689;56.878;60.672;2023-07-28T09:03:14;11.98;;;6.53;;
62523;SDS011;53689;56.878;60.672;2023-07-28T09:05:42;8.43;;;5.53;;
62523;SDS011;53689;56.878;60.672;2023-07-28T09:08:09;9.57;;;6.47;;
62523;SDS011;53689;56.878;60.672;2023-07-28T09:10:40;14.55;;;6.20;;
62523;SDS011;53689;56.878;60.672;2023-07-28T09:13:09;8.70;;;5.28;;
62523;SDS011;53689;56.878;60.672;2023-07-28T09:15:37;11.85;;;6.03;;
62523;SDS011;53689;56.878;60.672;2023-07-28T09:18:08;21.00;;;8.60;;
62523;SDS011;53689;56.878;60.672;2023-07-28T09:20:36;16.63;;;7.22;;
62523;SDS011;53689;56.878;60.672;2023-07-28T09:23:05;24.70;;;7.13;;
62523;SDS011;53689;56.878;60.672;2023-07-28T09:25:33;17.52;;;6.80;;
62523;SDS011;53689;56.878;60.672;2023-07-28T09:28:02;15.38;;;6.70;;
62523;SDS011;53689;56.878;60.672;2023-07-28T09:30:43;11.70;;;5.88;;
62523;SDS011;53689;56.878;60.672;2023-07-28T09:33:13;19.17;;;6.90;;
62523;SDS011;53689;56.878;60.672;2023-07-28T09:35:55;15.27;;;5.80;;
62523;SDS011;53689;56.878;60.672;2023-07-28T09:38:22;17.38;;;5.43;;
62523;SDS011;53689;56.878;60.672;2023-07-28T09:40:54;17.23;;;4.93;;
62523;SDS011;53689;56.878;60.672;2023-07-28T09:43:24;14.93;;;6.25;;
62523;SDS011;53689;56.878;60.672;2023-07-28T09:45:52;14.82;;;4.70;;
62523;SDS011;53689;56.878;60.672;2023-07-28T09:48:21;12.93;;;4.75;;
62523;SDS011;53689;56.878;60.672;2023-07-28T09:50:51;10.65;;;4.88;;
62523;SDS011;53689;56.878;60.672;2023-07-28T09:53:19;10.88;;;4.70;;
62523;SDS011;53689;56.878;60.672;2023-07-28T09:55:47;9.85;;;5.38;;
62523;SDS011;53689;56.878;60.672;2023-07-28T09:58:17;13.02;;;5.15;;
62523;SDS011;53689;56.878;60.672;2023-07-28T10:00:48;9.73;;;4.65;;
62523;SDS011;53689;56.878;60.672;2023-07-28T10:03:16;11.80;;;5.18;;
62523;SDS011;53689;56.878;60.672;2023-07-28T10:05:46;11.13;;;5.32;;
62523;SDS011;53689;56.878;60.672;2023-07-28T10:08:15;8.98;;;5.07;;
62523;SDS011;53689;56.878;60.672;2023-07-28T10:10:43;25.13;;;7.38;;
62523;SDS011;53689;56.878;60.672;2023-07-28T10:13:19;10.57;;;5.70;;
62523;SDS011;53689;56.878;60.672;2023-07-28T10:15:47;12.35;;;5.47;;
62523;SDS011;53689;56.878;60.672;2023-07-28T10:18:15;15.63;;;5.20;;
62523;SDS011;53689;56.878;60.672;2023-07-28T10:20:47;9.43;;;5.38;;
62523;SDS011;53689;56.878;60.672;2023-07-28T10:23:15;15.50;;;6.78;;
62523;SDS011;53689;56.878;60.672;2023-07-28T10:25:55;12.32;;;6.32;;
62523;SDS011;53689;56.878;60.672;2023-07-28T10:28:27;9.77;;;6.90;;
62523;SDS011;53689;56.878;60.672;2023-07-28T10:30:56;11.05;;;6.03;;
62523;SDS011;53689;56.878;60.672;2023-07-28T10:33:31;12.93;;;7.17;;
62523;SDS011;53689;56.878;60.672;2023-07-28T10:36:09;13.20;;;7.20;;
62523;SDS011;53689;56.878;60.672;2023-07-28T10:38:39;13.80;;;7.13;;
62523;SDS011;53689;56.878;60.672;2023-07-28T10:41:11;10.75;;;6.47;;
62523;SDS011;53689;56.878;60.672;2023-07-28T10:43:40;14.57;;;7.40;;
62523;SDS011;53689;56.878;60.672;2023-07-28T10:46:09;12.88;;;7.22;;
62523;SDS011;53689;56.878;60.672;2023-07-28T10:48:40;18.10;;;8.23;;
62523;SDS011;53689;56.878;60.672;2023-07-28T10:51:15;13.98;;;7.45;;
62523;SDS011;53689;56.878;60.672;2023-07-28T10:53:49;18.20;;;7.53;;
62523;SDS011;53689;56.878;60.672;2023-07-28T10:56:17;16.75;;;7.38;;
62523;SDS011;53689;56.878;60.672;2023-07-28T10:58:45;18.80;;;7.00;;
62523;SDS011;53689;56.878;60.672;2023-07-28T11:01:14;12.45;;;7.07;;
62523;SDS011;53689;56.878;60.672;2023-07-28T11:03:46;14.73;;;7.50;;
62523;SDS011;53689;56.878;60.672;2023-07-28T11:06:15;14.63;;;7.18;;
62523;SDS011;53689;56.878;60.672;2023-07-28T11:08:42;18.50;;;8.20;;
62523;SDS011;53689;56.878;60.672;2023-07-28T11:11:10;14.43;;;7.53;;
62523;SDS011;53689;56.878;60.672;2023-07-28T11:13:39;10.63;;;6.40;;
62523;SDS011;53689;56.878;60.672;2023-07-28T11:16:07;15.40;;;7.28;;
62523;SDS011;53689;56.878;60.672;2023-07-28T11:18:35;17.75;;;6.68;;
62523;SDS011;53689;56.878;60.672;2023-07-28T11:21:03;17.90;;;6.40;;
62523;SDS011;53689;56.878;60.672;2023-07-28T11:23:32;17.50;;;6.30;;
62523;SDS011;53689;56.878;60.672;2023-07-28T11:26:00;23.02;;;6.88;;
62523;SDS011;53689;56.878;60.672;2023-07-28T11:28:27;13.57;;;7.15;;
62523;SDS011;53689;56.878;60.672;2023-07-28T11:30:55;13.70;;;7.63;;
62523;SDS011;53689;56.878;60.672;2023-07-28T11:33:23;10.00;;;6.15;;
62523;SDS011;53689;56.878;60.672;2023-07-28T11:35:51;13.68;;;6.70;;
62523;SDS011;53689;56.878;60.672;2023-07-28T11:40:49;14.63;;;7.22;;
62523;SDS011;53689;56.878;60.672;2023-07-28T11:43:18;13.90;;;6.65;;
62523;SDS011;53689;56.878;60.672;2023-07-28T11:45:48;16.13;;;6.20;;
62523;SDS011;53689;56.878;60.672;2023-07-28T11:48:16;12.55;;;6.15;;
62523;SDS011;53689;56.878;60.672;2023-07-28T11:50:44;9.35;;;6.38;;
62523;SDS011;53689;56.878;60.672;2023-07-28T11:53:12;16.70;;;5.97;;
62523;SDS011;53689;56.878;60.672;2023-07-28T11:55:40;14.25;;;6.35;;
62523;SDS011;53689;56.878;60.672;2023-07-28T11:58:09;12.50;;;6.50;;
62523;SDS011;53689;56.878;60.672;2023-07-28T12:00:39;10.65;;;5.47;;
62523;SDS011;53689;56.878;60.672;2023-07-28T12:03:08;15.73;;;5.45;;
62523;SDS011;53689;56.878;60.672;2023-07-28T12:11:02;19.10;;;6.40;;
62523;SDS011;53689;56.878;60.672;2023-07-28T12:13:38;10.35;;;5.78;;
62523;SDS011;53689;56.878;60.672;2023-07-28T12:16:37;12.80;;;6.35;;
62523;SDS011;53689;56.878;60.672;2023-07-28T12:19:09;10.88;;;5.85;;
62523;SDS011;53689;56.878;60.672;2023-07-28T12:21:37;10.40;;;5.10;;
62523;SDS011;53689;56.878;60.672;2023-07-28T12:24:04;10.02;;;6.15;;
62523;SDS011;53689;56.878;60.672;2023-07-28T12:26:34;9.90;;;6.10;;
62523;SDS011;53689;56.878;60.672;2023-07-28T12:29:07;14.48;;;6.47;;
62523;SDS011;53689;56.878;60.672;2023-07-28T12:31:37;13.32;;;6.82;;
62523;SDS011;53689;56.878;60.672;2023-07-28T12:34:08;14.38;;;6.82;;
62523;SDS011;53689;56.878;60.672;2023-07-28T12:36:36;17.00;;;7.20;;
62523;SDS011;53689;56.878;60.672;2023-07-28T12:39:06;16.55;;;7.30;;
62523;SDS011;53689;56.878;60.672;2023-07-28T12:41:37;10.43;;;6.43;;
62523;SDS011;53689;56.878;60.672;2023-07-28T12:44:11;11.38;;;6.85;;
62523;SDS011;53689;56.878;60.672;2023-07-28T12:46:43;12.32;;;7.05;;
62523;SDS011;53689;56.878;60.672;2023-07-28T12:49:10;11.85;;;6.80;;
62523;SDS011;53689;56.878;60.672;2023-07-28T12:51:47;11.43;;;6.65;;
62523;SDS011;53689;56.878;60.672;2023-07-28T12:54:18;14.80;;;8.50;;
62523;SDS011;53689;56.878;60.672;2023-07-28T12:56:46;14.48;;;7.03;;
62523;SDS011;53689;56.878;60.672;2023-07-28T12:59:35;11.45;;;6.53;;
62523;SDS011;53689;56.878;60.672;2023-07-28T13:02:23;11.85;;;6.45;;
62523;SDS011;53689;56.878;60.672;2023-07-28T13:04:51;13.80;;;7.35;;
62523;SDS011;53689;56.878;60.672;2023-07-28T13:07:18;11.88;;;6.30;;
62523;SDS011;53689;56.878;60.672;2023-07-28T13:09:49;10.85;;;6.43;;
62523;SDS011;53689;56.878;60.672;2023-07-28T13:12:17;11.43;;;6.28;;
62523;SDS011;53689;56.878;60.672;2023-07-28T13:14:49;12.25;;;5.95;;
62523;SDS011;53689;56.878;60.672;2023-07-28T13:17:16;12.52;;;6.38;;
62523;SDS011;53689;56.878;60.672;2023-07-28T13:19:44;13.93;;;6.68;;
62523;SDS011;53689;56.878;60.672;2023-07-28T13:22:12;13.80;;;6.68;;
62523;SDS011;53689;56.878;60.672;2023-07-28T13:24:39;10.70;;;6.78;;
62523;SDS011;53689;56.878;60.672;2023-07-28T13:27:07;11.32;;;6.78;;
62523;SDS011;53689;56.878;60.672;2023-07-28T13:29:35;11.27;;;6.28;;
62523;SDS011;53689;56.878;60.672;2023-07-28T13:32:04;12.02;;;6.70;;
62523;SDS011;53689;56.878;60.672;2023-07-28T13:34:43;11.88;;;6.82;;
62523;SDS011;53689;56.878;60.672;2023-07-28T13:37:11;11.02;;;6.47;;
62523;SDS011;53689;56.878;60.672;2023-07-28T13:39:38;12.00;;;6.03;;
62523;SDS011;53689;56.878;60.672;2023-07-28T13:42:06;13.70;;;6.78;;
62523;SDS011;53689;56.878;60.672;2023-07-28T13:44:34;10.75;;;6.15;;
62523;SDS011;53689;56.878;60.672;2023-07-28T13:47:13;10.90;;;6.93;;
62523;SDS011;53689;56.878;60.672;2023-07-28T13:49:40;13.98;;;7.60;;
62523;SDS011;53689;56.878;60.672;2023-07-28T13:52:11;12.18;;;7.25;;
62523;SDS011;53689;56.878;60.672;2023-07-28T13:54:47;21.15;;;7.28;;
62523;SDS011;53689;56.878;60.672;2023-07-28T13:57:17;14.98;;;7.03;;
62523;SDS011;53689;56.878;60.672;2023-07-28T13:59:45;11.07;;;6.65;;
62523;SDS011;53689;56.878;60.672;2023-07-28T14:02:14;9.55;;;5.70;;
62523;SDS011;53689;56.878;60.672;2023-07-28T14:04:43;13.23;;;6.57;;
62523;SDS011;53689;56.878;60.672;2023-07-28T14:07:11;14.48;;;6.70;;
62523;SDS011;53689;56.878;60.672;2023-07-28T14:09:39;11.27;;;6.60;;
62523;SDS011;53689;56.878;60.672;2023-07-28T14:12:07;12.82;;;6.40;;
62523;SDS011;53689;56.878;60.672;2023-07-28T14:14:35;14.52;;;6.90;;
62523;SDS011;53689;56.878;60.672;2023-07-28T14:17:03;11.60;;;6.05;;
62523;SDS011;53689;56.878;60.672;2023-07-28T14:19:32;10.15;;;6.28;;
62523;SDS011;53689;56.878;60.672;2023-07-28T14:22:00;13.68;;;6.40;;
62523;SDS011;53689;56.878;60.672;2023-07-28T14:24:28;13.25;;;6.60;;
62523;SDS011;53689;56.878;60.672;2023-07-28T14:26:56;12.80;;;7.45;;
62523;SDS011;53689;56.878;60.672;2023-07-28T14:29:24;13.17;;;7.33;;
62523;SDS011;53689;56.878;60.672;2023-07-28T14:31:52;10.55;;;6.57;;
62523;SDS011;53689;56.878;60.672;2023-07-28T14:34:19;12.02;;;6.25;;
62523;SDS011;53689;56.878;60.672;2023-07-28T14:36:49;11.65;;;6.20;;
62523;SDS011;53689;56.878;60.672;2023-07-28T14:39:16;11.45;;;6.00;;
62523;SDS011;53689;56.878;60.672;2023-07-28T14:41:44;16.45;;;8.43;;
62523;SDS011;53689;56.878;60.672;2023-07-28T14:44:12;12.43;;;6.40;;
62523;SDS011;53689;56.878;60.672;2023-07-28T14:46:43;10.85;;;5.70;;
62523;SDS011;53689;56.878;60.672;2023-07-28T14:49:10;8.98;;;5.93;;